GMTA/AHU METAR and TAF weather

Enter ICAO airport designator
Station Type Date Time Source
GMTA METAR 2021/07/29 09:35 UTC NOAA

GMTA 290935Z 01005KT 340V040 6000 SCT010 SCT026 25/23 Q1014 NOSIG B3


Station Type Date Time Source
GMTA Decoded METAR 2021/07/29 09:35 UTC NOAA

Al Hoceima, Morocco (GMTA) 35-11N 003-51W 14M
Jul 29, 2021 - 05:35 AM EDT / 2021.07.29 0935 UTC
Wind: from the N (010 degrees) at 6 MPH (5 KT) (direction variable):0
Visibility: 3 mile(s):0
Sky conditions: partly cloudy
Temperature: 77 F (25 C)
Dew Point: 73 F (23 C)
Relative Humidity: 88%
Pressure (altimeter): 29.94 in. Hg (1014 hPa)
ob: GMTA 290935Z 01005KT 340V040 6000 SCT010 SCT026 25/23 Q1014 NOSIG B3
cycle: 9

Station Type Date Time Source
GMTA TAF 2021/07/29 06:18 UTC NOAA

TAF GMTA 290500Z 2906/3012 VRB01KT 6000 BKN008 PROB30
TEMPO 2916/2918 5000 -TSRA BKN013

Example: see airport list